createdAt,value
2019-02-22T00:03:26.045Z,30.77
2019-02-22T00:05:58.455Z,29.77
2019-02-22T00:09:12.524Z,30.37
2019-02-22T00:14:16.619Z,30.93
2019-02-22T00:17:35.128Z,31.60
2019-02-22T00:20:09.114Z,29.77
2019-02-22T00:25:16.696Z,30.67
2019-02-22T00:27:50.104Z,32.37
2019-02-22T00:30:21.513Z,30.83
2019-02-22T00:33:04.498Z,29.37
2019-02-22T00:35:39.833Z,31.60
2019-02-22T00:38:12.910Z,32.23
2019-02-22T00:40:53.763Z,30.97
2019-02-22T00:43:24.983Z,31.73
2019-02-22T00:46:28.292Z,31.80
2019-02-22T00:49:00.690Z,31.73
2019-02-22T00:51:37.266Z,32.43
2019-02-22T00:54:11.426Z,32.87
2019-02-22T00:56:45.621Z,33.17
2019-02-22T00:59:17.077Z,33.67
2019-02-22T01:01:55.546Z,33.73
2019-02-22T01:04:30.313Z,33.93
2019-02-22T01:07:36.956Z,33.23
2019-02-22T01:10:11.432Z,34.17
2019-02-22T01:13:18.085Z,35.97
2019-02-22T01:15:50.596Z,33.43
2019-02-22T01:18:23.872Z,34.20
2019-02-22T01:21:31.036Z,33.73
2019-02-22T01:24:03.541Z,34.77
2019-02-22T01:26:37.059Z,36.00
2019-02-22T01:29:13.549Z,35.57
2019-02-22T01:31:47.107Z,36.53
2019-02-22T01:34:17.624Z,35.47
2019-02-22T01:36:50.782Z,35.17
2019-02-22T01:39:22.399Z,36.27
2019-02-22T01:42:28.017Z,35.00
2019-02-22T01:45:03.846Z,34.77
2019-02-22T01:47:34.708Z,35.80
2019-02-22T01:50:30.191Z,35.93
2019-02-22T01:53:02.706Z,36.83
2019-02-22T01:55:36.083Z,35.00
2019-02-22T01:58:08.373Z,35.87
2019-02-22T02:00:42.143Z,37.10
2019-02-22T02:03:16.644Z,35.20
2019-02-22T02:05:49.193Z,35.63
2019-02-22T02:08:21.871Z,37.80
2019-02-22T02:11:31.712Z,35.57
2019-02-22T02:14:04.739Z,38.33
2019-02-22T02:16:40.603Z,37.77
2019-02-22T02:19:12.872Z,37.20
2019-02-22T02:21:44.420Z,38.07
2019-02-22T02:24:16.373Z,37.37
2019-02-22T02:26:49.959Z,37.50
2019-02-22T02:29:22.851Z,37.17
2019-02-22T02:32:00.763Z,37.80
2019-02-22T02:34:32.226Z,36.37
2019-02-22T02:37:28.223Z,34.77
2019-02-22T02:40:00.445Z,36.07
2019-02-22T02:42:33.104Z,35.37
2019-02-22T02:45:35.585Z,35.50
2019-02-22T02:48:08.475Z,35.37
2019-02-22T02:51:06.314Z,35.70
2019-02-22T02:53:39.597Z,33.47
2019-02-22T02:56:11.094Z,37.30
2019-02-22T02:58:44.236Z,35.30
2019-02-22T03:01:14.016Z,36.67
2019-02-22T03:03:46.547Z,35.80
2019-02-22T03:06:30.678Z,38.47
2019-02-22T03:09:00.734Z,36.77
2019-02-22T03:12:09.369Z,36.83
2019-02-22T03:14:48.138Z,37.33
2019-02-22T03:17:18.828Z,37.07
2019-02-22T03:20:17.234Z,35.70
2019-02-22T03:22:50.472Z,37.73
2019-02-22T03:28:13.975Z,38.13
2019-02-22T03:30:47.519Z,37.60
2019-02-22T03:33:23.136Z,39.50
2019-02-22T03:35:56.337Z,40.03
2019-02-22T03:39:01.060Z,38.73
2019-02-22T03:41:35.311Z,38.97
2019-02-22T03:44:09.177Z,41.03
2019-02-22T03:47:31.912Z,40.07
2019-02-22T03:50:07.658Z,41.37
2019-02-22T03:55:32.640Z,41.13
2019-02-22T03:58:05.153Z,40.80
2019-02-22T04:00:37.966Z,41.10
2019-02-22T04:03:08.888Z,40.23
2019-02-22T04:06:31.234Z,40.83
2019-02-22T04:09:04.370Z,40.53
2019-02-22T04:11:44.913Z,41.17
2019-02-22T04:14:08.754Z,39.40
2019-02-22T04:16:38.216Z,43.03
2019-02-22T04:19:55.719Z,44.90
2019-02-22T04:22:29.082Z,42.90
2019-02-22T04:25:02.317Z,44.10
2019-02-22T04:27:40.876Z,45.37
2019-02-22T04:30:14.938Z,43.80
2019-02-22T04:32:49.112Z,44.43
2019-02-22T04:35:22.882Z,49.33
2019-02-22T04:37:56.364Z,48.73
2019-02-22T04:41:04.529Z,48.63
2019-02-22T04:43:38.782Z,49.17
2019-02-22T04:46:14.054Z,50.60
2019-02-22T04:49:32.212Z,50.07
2019-02-22T04:52:05.768Z,53.33
2019-02-22T04:54:39.497Z,50.50
2019-02-22T04:57:35.388Z,52.13
2019-02-22T05:00:06.385Z,50.80
2019-02-22T05:02:42.807Z,54.03
2019-02-22T05:05:14.756Z,52.17
2019-02-22T05:07:46.804Z,51.93
2019-02-22T05:10:19.573Z,51.67
2019-02-22T05:13:44.525Z,48.60
2019-02-22T05:16:14.971Z,49.27
2019-02-22T05:19:24.259Z,53.63
2019-02-22T05:21:56.323Z,51.60
2019-02-22T05:25:03.394Z,50.37
2019-02-22T05:27:37.580Z,51.00
2019-02-22T05:30:10.783Z,53.87
2019-02-22T05:33:15.488Z,51.43
2019-02-22T05:35:46.091Z,51.10
2019-02-22T05:38:53.645Z,52.10
2019-02-22T05:41:25.141Z,55.67
2019-02-22T05:43:57.804Z,55.67
2019-02-22T05:46:30.188Z,55.53
2019-02-22T05:49:01.378Z,56.30
2019-02-22T05:51:34.980Z,57.90
2019-02-22T05:54:12.634Z,55.23
2019-02-22T05:56:42.576Z,55.97
2019-02-22T05:59:12.707Z,54.23
2019-02-22T06:01:52.926Z,52.83
2019-02-22T06:04:25.315Z,49.63
2019-02-22T06:07:17.139Z,48.63
2019-02-22T06:09:47.357Z,48.20
2019-02-22T06:12:18.557Z,48.10
2019-02-22T06:15:35.218Z,45.07
2019-02-22T06:18:06.586Z,45.77
2019-02-22T06:21:16.857Z,43.10
2019-02-22T11:12:16.928Z,20.73
2019-02-22T11:15:05.246Z,20.67
2019-02-22T11:31:15.078Z,22.07
2019-02-22T11:34:19.848Z,18.73
2019-02-22T11:36:52.219Z,17.87
2019-02-22T11:39:21.731Z,19.70
2019-02-22T11:42:32.906Z,16.97
2019-02-22T11:45:02.029Z,17.83
2019-02-22T11:48:29.936Z,18.83
2019-02-22T11:51:02.406Z,17.23
2019-02-22T11:53:32.214Z,18.60
2019-02-22T11:59:24.681Z,17.77
2019-02-22T12:01:56.977Z,17.90
2019-02-22T12:05:00.382Z,18.30
2019-02-22T12:07:33.873Z,19.57
2019-02-22T12:10:30.140Z,17.70
2019-02-22T12:13:04.293Z,16.87
2019-02-22T12:16:25.504Z,18.00
2019-02-22T12:18:58.383Z,15.27
2019-02-22T12:21:31.304Z,16.00
2019-02-22T12:23:59.713Z,15.00
2019-02-22T12:26:35.577Z,16.52
2019-02-22T12:29:05.440Z,15.63
2019-02-22T12:31:34.584Z,15.07
2019-02-22T12:34:54.433Z,14.30
2019-02-22T12:37:26.301Z,14.57
2019-02-22T12:40:05.650Z,15.97
2019-02-22T12:43:11.495Z,15.20
2019-02-22T12:45:47.873Z,14.40
2019-02-22T12:48:19.909Z,13.77
2019-02-22T12:50:59.352Z,13.67
2019-02-22T12:53:39.492Z,14.40
2019-02-22T12:56:21.433Z,12.90
2019-02-22T13:05:54.247Z,12.77
2019-02-22T13:08:23.764Z,13.43
2019-02-22T13:11:09.792Z,11.63
2019-02-22T13:13:38.944Z,13.33
2019-02-22T13:16:41.192Z,12.20
2019-02-22T13:19:10.360Z,11.97
2019-02-22T13:22:36.212Z,12.40
2019-02-22T13:25:10.954Z,8.77
2019-02-22T13:28:06.721Z,9.73
2019-02-22T13:30:36.185Z,9.33
2019-02-22T13:33:07.777Z,10.93
2019-02-22T13:36:14.271Z,10.37
2019-02-22T13:38:43.810Z,9.40
2019-02-22T13:42:03.116Z,10.00
2019-02-22T13:44:39.620Z,9.77
2019-02-22T13:47:50.329Z,8.57
2019-02-22T13:50:23.101Z,8.83
2019-02-22T13:53:37.714Z,8.63
2019-02-22T13:56:09.075Z,9.13
2019-02-22T13:59:17.067Z,8.83
2019-02-22T14:01:47.938Z,9.93
2019-02-22T14:04:44.124Z,9.47
2019-02-22T14:10:58.743Z,9.53
2019-02-22T14:13:32.000Z,10.53
2019-02-22T14:16:52.662Z,10.73
2019-02-22T14:19:30.214Z,11.10
2019-02-22T14:22:12.598Z,10.30
2019-02-22T14:24:47.499Z,12.50
2019-02-22T14:28:12.018Z,10.70
2019-02-22T14:30:39.704Z,9.53
2019-02-22T14:33:52.330Z,10.10
2019-02-22T14:36:25.394Z,10.13
2019-02-22T14:39:31.824Z,10.40
2019-02-22T14:42:03.092Z,9.90
2019-02-22T14:44:58.217Z,9.27
2019-02-22T14:47:37.235Z,8.40
2019-02-22T14:50:56.092Z,9.93
2019-02-22T14:53:30.246Z,9.60
2019-02-22T14:56:44.807Z,9.93
2019-02-22T14:59:21.722Z,9.73
2019-02-22T15:02:16.790Z,9.97
2019-02-22T15:04:46.406Z,10.10
2019-02-22T15:08:06.753Z,11.20
2019-02-22T15:10:40.447Z,11.70
2019-02-22T15:13:32.120Z,10.90
2019-02-22T15:16:07.451Z,12.13
2019-02-22T15:19:17.289Z,11.07
2019-02-22T15:21:49.604Z,10.83
2019-02-22T15:24:37.701Z,10.53
2019-02-22T15:27:36.178Z,14.67
2019-02-22T15:30:23.410Z,11.93
2019-02-22T15:32:52.700Z,10.33
2019-02-22T15:35:21.723Z,11.50
2019-02-22T15:37:50.768Z,10.77
2019-02-22T15:43:07.922Z,11.67
2019-02-22T15:45:41.503Z,13.60
2019-02-22T15:48:37.280Z,12.07
2019-02-22T15:51:08.881Z,12.53
2019-02-22T15:54:19.681Z,13.03
2019-02-22T15:56:48.945Z,10.93
2019-02-22T16:00:01.703Z,11.40
2019-02-22T16:02:31.654Z,11.23
2019-02-22T16:05:26.299Z,11.70
2019-02-22T16:07:59.078Z,11.80
2019-02-22T16:11:01.251Z,10.93
2019-02-22T16:13:32.073Z,11.43
2019-02-22T16:16:43.248Z,13.93
2019-02-22T16:19:29.086Z,12.17
2019-02-22T16:22:51.407Z,13.07
2019-02-22T16:25:20.983Z,12.63
2019-02-22T16:28:15.817Z,12.73
2019-02-22T16:30:45.410Z,11.87
2019-02-22T16:33:50.812Z,11.77
2019-02-22T16:36:21.984Z,11.43
2019-02-22T16:39:28.378Z,11.60
2019-02-22T16:42:00.548Z,13.00
2019-02-22T16:45:12.638Z,11.43
2019-02-22T16:47:43.418Z,12.00
2019-02-22T16:51:06.216Z,13.40
2019-02-22T16:53:45.319Z,12.50
2019-02-22T16:56:27.093Z,15.13
2019-02-22T16:58:57.603Z,14.47
2019-02-22T17:02:02.659Z,14.10
2019-02-22T17:04:31.822Z,13.63
2019-02-22T17:07:01.072Z,12.50
2019-02-22T17:09:33.155Z,11.80
2019-02-22T17:12:06.409Z,12.80
2019-02-22T17:15:10.791Z,15.87
2019-02-22T17:17:40.162Z,13.33
2019-02-22T17:20:56.253Z,17.60
2019-02-22T17:23:28.751Z,13.57
2019-02-22T17:26:45.268Z,15.80
2019-02-22T17:29:21.041Z,15.83
2019-02-22T17:32:43.205Z,12.80
2019-02-22T17:35:13.798Z,14.63
2019-02-22T17:37:45.657Z,12.87
2019-02-22T17:40:21.213Z,13.30
2019-02-22T17:42:54.420Z,12.97
2019-02-22T17:46:13.084Z,12.77
2019-02-22T17:48:44.773Z,13.60
2019-02-22T17:51:55.418Z,14.90
2019-02-22T17:54:31.761Z,14.67
2019-02-22T17:57:37.134Z,14.10
2019-02-22T18:00:19.669Z,13.87
2019-02-22T18:03:26.206Z,13.10
2019-02-22T18:06:02.746Z,12.67
2019-02-22T18:09:10.973Z,10.97
2019-02-22T18:11:40.451Z,12.10
2019-02-22T18:14:55.224Z,10.93
2019-02-22T18:17:26.222Z,10.47
2019-02-22T18:20:25.914Z,12.07
2019-02-22T18:23:02.250Z,11.13
2019-02-22T18:26:18.545Z,14.03
2019-02-22T18:28:50.723Z,12.67
2019-02-22T18:31:58.994Z,12.50
2019-02-22T18:34:31.214Z,12.00
2019-02-22T18:37:34.348Z,13.77
2019-02-22T18:40:04.826Z,11.33
2019-02-22T18:43:18.287Z,12.43
2019-02-22T18:45:54.841Z,12.37
2019-02-22T18:49:09.718Z,12.00
2019-02-22T18:51:39.308Z,13.80
2019-02-22T18:54:59.224Z,12.87
2019-02-22T18:57:30.365Z,12.40
2019-02-22T19:00:00.604Z,11.23
2019-02-22T19:02:59.437Z,12.17
2019-02-22T19:05:31.669Z,10.97
2019-02-22T19:15:10.611Z,12.20
2019-02-22T19:17:47.165Z,13.23
2019-02-22T19:21:00.299Z,11.70
2019-02-22T19:23:34.745Z,10.80
2019-02-22T19:26:52.137Z,12.20
2019-02-22T19:29:22.627Z,11.87
2019-02-22T19:32:15.666Z,11.30
2019-02-22T19:34:47.665Z,11.47
2019-02-22T19:38:53.412Z,11.57
2019-02-22T19:39:51.186Z,12.63
2019-02-22T19:42:29.861Z,12.83
2019-02-22T19:45:35.939Z,13.90
2019-02-22T19:48:05.240Z,13.13
2019-02-22T19:51:13.405Z,14.50
2019-02-22T19:53:47.859Z,13.30
2019-02-22T19:57:05.670Z,13.03
2019-02-22T19:59:35.077Z,14.63
2019-02-22T20:02:47.259Z,14.33
2019-02-22T20:05:23.908Z,13.77
2019-02-22T20:08:18.393Z,12.33
2019-02-22T20:10:50.298Z,13.17
2019-02-22T20:13:51.570Z,12.90
2019-02-22T20:16:21.525Z,15.03
2019-02-22T20:19:23.507Z,13.03
2019-02-22T20:22:04.750Z,12.97
2019-02-22T20:25:10.759Z,13.47
2019-02-22T20:27:48.160Z,14.03
2019-02-22T20:31:05.603Z,14.93
2019-02-22T20:33:41.460Z,12.83
2019-02-22T20:36:28.670Z,13.97
2019-02-22T20:39:06.215Z,14.53
2019-02-22T20:42:34.833Z,12.50
2019-02-22T20:45:12.115Z,12.73
2019-02-22T20:47:52.575Z,11.57
2019-02-22T20:50:29.520Z,12.10
2019-02-22T20:53:50.223Z,12.83
2019-02-22T20:56:24.018Z,11.33
2019-02-22T20:59:28.204Z,11.90
2019-02-22T21:01:58.086Z,11.63
2019-02-22T21:04:53.621Z,12.03
2019-02-22T21:07:23.001Z,13.67
2019-02-22T21:10:41.456Z,12.87
2019-02-22T21:13:11.258Z,13.77
2019-02-22T21:16:26.046Z,14.63
2019-02-22T21:18:59.661Z,14.90
2019-02-22T21:21:32.462Z,13.07
2019-02-22T21:24:51.693Z,13.37
2019-02-22T21:27:27.371Z,12.33
2019-02-22T21:30:48.063Z,12.10
2019-02-22T21:33:21.452Z,12.23
2019-02-22T21:36:32.553Z,11.80
2019-02-22T21:39:04.446Z,12.20
2019-02-22T21:41:34.096Z,11.20
2019-02-22T21:44:05.466Z,11.23
2019-02-22T21:46:37.657Z,10.67
2019-02-22T21:49:06.754Z,11.40
2019-02-22T21:51:41.985Z,10.43
2019-02-22T21:54:11.704Z,10.13
2019-02-22T21:56:41.043Z,10.57
2019-02-22T21:59:45.079Z,11.47
2019-02-22T22:02:14.055Z,9.70
2019-02-22T22:05:27.750Z,11.13
2019-02-22T22:08:06.812Z,10.30
2019-02-22T22:11:26.655Z,9.97
2019-02-22T22:14:05.495Z,9.03
2019-02-22T22:17:22.477Z,9.43
2019-02-22T22:19:54.556Z,9.73
2019-02-22T22:22:24.068Z,9.53
2019-02-22T22:24:54.730Z,9.33
2019-02-22T22:27:23.817Z,9.37
2019-02-22T22:30:16.519Z,8.97
2019-02-22T22:32:46.042Z,9.20
2019-02-22T22:35:18.011Z,8.93
2019-02-22T22:38:44.965Z,9.60
2019-02-22T22:41:14.181Z,8.50
2019-02-22T22:44:07.276Z,9.07
2019-02-22T22:46:37.193Z,8.17
2019-02-22T22:49:59.260Z,9.00
2019-02-22T22:52:28.619Z,8.40
2019-02-22T22:55:33.759Z,7.93
2019-02-22T22:58:02.819Z,10.30
2019-02-22T23:01:12.211Z,8.33
2019-02-22T23:03:46.442Z,7.63
2019-02-22T23:06:49.297Z,8.33
2019-02-22T23:09:23.199Z,8.13
2019-02-22T23:12:45.454Z,8.10
2019-02-22T23:15:29.101Z,8.00
2019-02-22T23:17:59.372Z,8.17
2019-02-22T23:21:00.991Z,8.00
2019-02-22T23:23:34.940Z,7.97
2019-02-22T23:26:06.812Z,7.97
2019-02-22T23:29:20.512Z,7.70
2019-02-22T23:31:55.958Z,7.97
2019-02-22T23:37:08.091Z,8.00
2019-02-22T23:39:39.331Z,7.23
2019-02-22T23:49:21.148Z,11.80
2019-02-22T23:51:53.550Z,8.97
2019-02-22T23:55:09.152Z,8.03
2019-02-22T23:57:39.810Z,8.93
